Time;durP1;ratioP1;P1;durP2;ratioP2;P2;SDS_P1;SDS_P2;PMS_P1;PMS_P2;Temp;Humidity;BMP_temperature;BMP_pressure;BME280_temperature;BME280_humidity;BME280_pressure;Samples;Min_cycle;Max_cycle;Signal;HPM_P1;HPM_P2
2021/04/05 00:02:08;;;;;;;28.40;14.95;;;5.60;99.90;;;;;;5094694;28;20035;-89
2021/04/05 00:04:33;;;;;;;27.00;15.95;;;5.60;99.90;;;;;;5094376;28;20371;-87
2021/04/05 00:06:59;;;;;;;25.65;14.45;;;5.60;99.90;;;;;;5091989;28;20789;-90
2021/04/05 00:09:25;;;;;;;29.55;15.70;;;5.60;99.90;;;;;;5090917;28;20020;-88
2021/04/05 00:11:50;;;;;;;26.52;15.57;;;5.60;99.90;;;;;;5093881;28;20099;-90
2021/04/05 00:14:16;;;;;;;24.60;13.98;;;5.60;99.90;;;;;;5094704;28;20057;-90
2021/04/05 00:16:42;;;;;;;35.22;17.00;;;5.50;99.90;;;;;;5093277;28;20063;-90
2021/04/05 00:19:08;;;;;;;31.17;17.67;;;5.50;99.90;;;;;;5093926;28;20076;-92
2021/04/05 00:21:34;;;;;;;24.75;15.57;;;5.50;99.90;;;;;;5092684;28;20032;-88
2021/04/05 00:24:00;;;;;;;27.65;16.08;;;5.50;99.90;;;;;;5094133;28;20051;-91
2021/04/05 00:26:25;;;;;;;27.48;15.95;;;5.50;99.90;;;;;;5092511;28;20107;-90
2021/04/05 00:28:51;;;;;;;25.17;15.90;;;5.50;99.90;;;;;;5087949;28;20039;-89
2021/04/05 00:31:18;;;;;;;28.83;15.93;;;5.50;99.90;;;;;;5081986;28;20035;-88
2021/04/05 00:33:44;;;;;;;26.13;17.00;;;5.50;99.90;;;;;;5080973;28;20024;-89
2021/04/05 00:36:10;;;;;;;24.45;15.55;;;5.50;99.90;;;;;;5074305;28;20047;-89
2021/04/05 00:38:36;;;;;;;32.13;17.55;;;5.50;99.90;;;;;;5072877;28;20039;-88
2021/04/05 00:41:09;;;;;;;27.92;16.85;;;5.50;99.90;;;;;;5086711;28;20100;-89
2021/04/05 00:43:36;;;;;;;29.13;16.40;;;5.50;99.90;;;;;;5092598;28;20127;-89
2021/04/05 00:46:03;;;;;;;31.25;17.65;;;5.50;99.90;;;;;;5092005;28;20028;-89
2021/04/05 00:48:30;;;;;;;31.52;18.05;;;5.50;99.90;;;;;;5092823;28;20073;-88
2021/04/05 00:51:01;;;;;;;31.27;19.60;;;5.50;99.90;;;;;;5087164;28;20540;-89
2021/04/05 00:53:31;;;;;;;30.02;19.33;;;5.50;99.90;;;;;;5086406;28;20025;-87
2021/04/05 00:56:00;;;;;;;29.63;17.85;;;5.50;99.90;;;;;;5072445;28;20082;-89
2021/04/05 00:58:27;;;;;;;28.73;17.50;;;5.50;99.90;;;;;;5072377;28;20028;-89
2021/04/05 01:00:55;;;;;;;33.33;18.58;;;5.50;99.90;;;;;;5071282;28;20028;-88
2021/04/05 01:03:25;;;;;;;32.60;18.25;;;5.50;99.90;;;;;;5075747;28;20081;-91
2021/04/05 01:05:59;;;;;;;31.42;19.15;;;5.50;99.90;;;;;;5076202;28;20029;-90
2021/04/05 01:08:25;;;;;;;34.90;20.15;;;5.50;99.90;;;;;;5074346;28;20025;-89
2021/04/05 01:10:51;;;;;;;33.25;19.73;;;5.50;99.90;;;;;;5074166;28;20491;-90
2021/04/05 01:13:19;;;;;;;30.05;19.40;;;5.50;99.90;;;;;;5074126;28;20024;-90
2021/04/05 01:15:45;;;;;;;39.67;20.02;;;5.50;99.90;;;;;;5075310;28;20158;-89
2021/04/05 01:18:15;;;;;;;37.83;21.98;;;5.60;99.90;;;;;;5074213;28;20526;-91
2021/04/05 01:20:45;;;;;;;34.05;20.63;;;5.60;99.90;;;;;;5074038;28;20024;-89
2021/04/05 01:23:10;;;;;;;35.85;20.00;;;5.60;99.90;;;;;;5074158;28;20059;-90
2021/04/05 01:25:36;;;;;;;32.63;20.38;;;5.60;99.90;;;;;;5075358;28;20064;-90
2021/04/05 01:28:03;;;;;;;37.17;20.27;;;5.70;99.90;;;;;;5074097;28;20016;-89
2021/04/05 01:30:38;;;;;;;34.85;19.35;;;5.60;99.90;;;;;;5073899;28;20099;-90
2021/04/05 01:33:07;;;;;;;35.20;19.58;;;5.70;99.90;;;;;;5073983;28;20017;-90
2021/04/05 01:35:54;;;;;;;37.72;19.90;;;5.70;99.90;;;;;;5074931;28;20040;-89
2021/04/05 01:38:26;;;;;;;37.85;19.65;;;5.70;99.90;;;;;;5059980;28;20027;-89
2021/04/05 01:41:00;;;;;;;34.50;19.42;;;5.70;99.90;;;;;;5075177;28;20138;-90
2021/04/05 01:43:26;;;;;;;32.35;18.75;;;5.80;99.90;;;;;;5056566;28;20027;-90
2021/04/05 01:45:54;;;;;;;35.95;19.55;;;5.80;99.90;;;;;;5056742;28;20052;-90
2021/04/05 01:48:23;;;;;;;32.25;19.70;;;5.90;99.90;;;;;;5074332;28;20021;-90
2021/04/05 01:50:49;;;;;;;33.05;17.58;;;5.90;99.90;;;;;;5073131;28;20035;-91
2021/04/05 01:53:18;;;;;;;34.70;20.02;;;6.00;99.90;;;;;;5056615;28;20044;-89
2021/04/05 01:55:45;;;;;;;35.72;17.77;;;6.10;99.90;;;;;;5056059;28;20572;-90
2021/04/05 01:58:11;;;;;;;36.53;19.85;;;6.10;99.90;;;;;;5057628;28;20035;-89
2021/04/05 02:00:39;;;;;;;33.15;18.25;;;6.10;99.90;;;;;;5057382;28;20024;-91
2021/04/05 02:03:09;;;;;;;34.20;18.38;;;6.10;99.90;;;;;;5056954;28;20040;-90
2021/04/05 02:05:56;;;;;;;31.40;17.80;;;6.20;99.90;;;;;;5074287;28;20035;-90
2021/04/05 02:08:23;;;;;;;33.33;18.08;;;6.20;99.90;;;;;;5074764;28;20104;-90
2021/04/05 02:10:51;;;;;;;37.30;18.75;;;6.20;99.90;;;;;;5056685;28;20036;-90
2021/04/05 02:13:22;;;;;;;32.50;17.88;;;6.30;99.90;;;;;;5074366;28;20028;-90
2021/04/05 02:15:53;;;;;;;30.75;17.83;;;6.30;99.90;;;;;;5056545;28;20040;-91
2021/04/05 02:18:21;;;;;;;36.10;18.25;;;6.30;99.90;;;;;;5074932;28;20028;-90
2021/04/05 02:20:48;;;;;;;27.77;16.90;;;6.30;99.90;;;;;;5057298;28;20033;-91
2021/04/05 02:23:14;;;;;;;39.28;17.88;;;6.30;99.90;;;;;;5057329;28;20466;-90
2021/04/05 02:28:28;;;;;;;38.92;18.95;;;6.50;99.90;;;;;;5074717;28;20027;-90
2021/04/05 02:30:55;;;;;;;32.45;18.55;;;6.40;99.90;;;;;;5056565;28;20029;-90
2021/04/05 02:33:22;;;;;;;33.65;18.35;;;6.50;99.90;;;;;;5056236;28;20396;-90
2021/04/05 02:35:48;;;;;;;45.15;20.25;;;6.50;99.90;;;;;;5056213;28;20500;-89
2021/04/05 02:38:14;;;;;;;36.65;19.23;;;6.50;99.90;;;;;;5074376;28;20100;-90
2021/04/05 02:40:42;;;;;;;34.95;18.63;;;6.50;99.90;;;;;;5074076;28;20114;-89
2021/04/05 02:43:08;;;;;;;35.17;18.83;;;6.50;99.90;;;;;;5056190;28;20116;-90
2021/04/05 02:45:34;;;;;;;36.83;18.48;;;6.50;99.90;;;;;;5056298;28;20382;-91
2021/04/05 02:48:01;;;;;;;35.88;18.02;;;6.50;99.90;;;;;;5056200;28;20490;-90
2021/04/05 02:50:30;;;;;;;35.75;19.02;;;6.50;99.90;;;;;;5056243;28;20017;-90
2021/04/05 02:52:59;;;;;;;41.95;19.95;;;6.60;99.90;;;;;;5058045;28;20035;-90
2021/04/05 02:55:25;;;;;;;37.67;18.92;;;6.60;99.90;;;;;;5057763;28;20082;-90
2021/04/05 02:57:53;;;;;;;37.42;17.33;;;6.70;99.90;;;;;;5077753;28;20024;-88
2021/04/05 03:00:20;;;;;;;34.45;18.05;;;6.70;99.90;;;;;;5045377;28;20048;-90
2021/04/05 03:02:48;;;;;;;37.28;18.40;;;6.70;99.90;;;;;;5056110;28;20382;-90
2021/04/05 03:05:17;;;;;;;38.05;17.83;;;6.80;99.90;;;;;;5056050;28;20470;-90
2021/04/05 03:07:44;;;;;;;38.40;18.95;;;6.80;99.90;;;;;;5057729;28;20020;-90
2021/04/05 03:10:11;;;;;;;33.75;18.27;;;6.80;99.90;;;;;;5060837;28;20051;-89
2021/04/05 03:12:38;;;;;;;28.83;17.55;;;6.90;99.90;;;;;;5059802;28;20012;-88
2021/04/05 03:15:07;;;;;;;40.90;18.27;;;6.90;99.90;;;;;;5059907;28;20120;-89
2021/04/05 03:17:34;;;;;;;38.47;18.58;;;6.90;99.90;;;;;;5078557;28;20028;-89
2021/04/05 03:20:01;;;;;;;38.47;18.17;;;7.00;99.90;;;;;;5059798;28;20032;-90
2021/04/05 03:22:27;;;;;;;43.15;19.38;;;7.00;99.90;;;;;;5059871;28;20036;-90
2021/04/05 03:24:52;;;;;;;37.53;19.40;;;7.00;99.90;;;;;;5059920;28;20016;-89
2021/04/05 03:27:18;;;;;;;37.10;17.95;;;7.00;99.90;;;;;;5077815;28;20060;-88
2021/04/05 03:29:45;;;;;;;33.47;17.48;;;7.00;99.90;;;;;;5077562;28;20537;-90
2021/04/05 03:32:18;;;;;;;37.35;18.92;;;7.00;99.90;;;;;;5059584;28;20024;-89
2021/04/05 03:34:55;;;;;;;34.60;18.93;;;7.00;99.90;;;;;;5059588;28;20013;-88
2021/04/05 03:37:22;;;;;;;41.10;19.08;;;7.00;99.90;;;;;;5077464;28;20073;-89
2021/04/05 03:39:49;;;;;;;37.03;18.63;;;7.00;99.90;;;;;;5059497;28;20040;-89
2021/04/05 03:42:21;;;;;;;37.90;18.95;;;7.00;99.90;;;;;;5059235;28;20139;-89
2021/04/05 03:45:04;;;;;;;35.20;18.07;;;7.00;99.90;;;;;;5059449;28;20017;-88
2021/04/05 03:47:50;;;;;;;35.58;18.17;;;7.00;99.90;;;;;;5059247;28;20024;-88
2021/04/05 03:50:27;;;;;;;42.65;20.30;;;7.00;99.90;;;;;;5077193;28;20024;-88
2021/04/05 03:53:06;;;;;;;42.03;19.58;;;7.00;99.90;;;;;;5076868;28;20036;-89
2021/04/05 03:55:33;;;;;;;40.92;19.75;;;7.00;99.90;;;;;;5076971;28;20028;-89
2021/04/05 03:58:01;;;;;;;35.38;20.08;;;6.90;99.90;;;;;;5077153;28;20379;-88
2021/04/05 04:00:29;;;;;;;34.53;18.60;;;6.90;99.90;;;;;;5078231;28;20020;-88
2021/04/05 04:02:58;;;;;;;31.95;17.85;;;6.90;99.90;;;;;;5058870;28;20028;-89
2021/04/05 04:05:42;;;;;;;42.58;20.52;;;6.90;99.90;;;;;;5058833;28;20095;-88
2021/04/05 04:08:27;;;;;;;37.28;19.55;;;6.90;99.90;;;;;;5058744;28;20402;-87
2021/04/05 04:10:57;;;;;;;36.17;19.17;;;6.80;99.90;;;;;;5058712;28;20032;-88
2021/04/05 04:13:26;;;;;;;42.05;21.30;;;6.80;99.90;;;;;;5075941;28;20025;-88
2021/04/05 04:15:52;;;;;;;38.70;19.35;;;6.80;99.90;;;;;;5075698;28;20086;-91
2021/04/05 04:18:19;;;;;;;38.67;20.88;;;6.80;99.90;;;;;;5057961;28;20021;-88
2021/04/05 04:20:46;;;;;;;36.83;20.30;;;6.70;99.90;;;;;;5075347;28;20021;-89
2021/04/05 04:23:15;;;;;;;41.58;21.08;;;6.70;99.90;;;;;;5075531;28;20017;-88
2021/04/05 04:25:41;;;;;;;43.85;20.55;;;6.70;99.90;;;;;;5076099;28;20024;-89
2021/04/05 04:28:07;;;;;;;39.17;20.52;;;6.80;99.90;;;;;;5057909;28;20021;-90
2021/04/05 04:30:33;;;;;;;41.92;20.10;;;6.80;99.90;;;;;;5057263;28;20359;-89
2021/04/05 04:33:06;;;;;;;39.92;20.13;;;6.90;99.90;;;;;;5057656;28;20351;-91
2021/04/05 04:35:35;;;;;;;42.78;20.83;;;6.90;99.90;;;;;;5057541;28;20043;-89
2021/04/05 04:38:02;;;;;;;37.78;20.88;;;6.90;99.90;;;;;;5057620;28;20077;-89
2021/04/05 04:40:30;;;;;;;34.55;19.85;;;6.90;99.90;;;;;;5057399;28;20127;-87
2021/04/05 04:43:02;;;;;;;36.97;20.05;;;6.90;99.90;;;;;;5058405;28;20017;-89
2021/04/05 04:45:28;;;;;;;35.15;17.75;;;6.90;99.90;;;;;;5075737;28;20479;-88
2021/04/05 04:47:55;;;;;;;37.25;19.10;;;7.00;99.90;;;;;;5075628;28;20073;-89
2021/04/05 04:50:22;;;;;;;31.33;18.15;;;7.00;99.90;;;;;;5057621;28;20024;-88
2021/04/05 04:52:48;;;;;;;32.58;17.40;;;7.00;99.90;;;;;;5057397;28;20390;-88
2021/04/05 04:55:15;;;;;;;30.85;17.80;;;7.00;99.90;;;;;;5057286;28;20021;-90
2021/04/05 04:57:41;;;;;;;32.83;17.10;;;7.10;99.90;;;;;;5075284;28;20028;-89
2021/04/05 05:00:07;;;;;;;38.92;16.58;;;7.10;99.90;;;;;;5057490;28;20058;-88
2021/04/05 05:02:41;;;;;;;26.95;15.18;;;7.10;99.90;;;;;;5057397;28;20027;-89
2021/04/05 05:05:09;;;;;;;34.72;15.50;;;7.10;99.90;;;;;;5057351;28;20021;-88
2021/04/05 05:07:36;;;;;;;28.83;15.05;;;7.20;99.90;;;;;;5074912;28;20056;-88
2021/04/05 05:10:04;;;;;;;23.65;12.88;;;7.20;99.90;;;;;;5057590;28;20043;-88
2021/04/05 05:12:30;;;;;;;27.77;12.55;;;7.30;99.90;;;;;;5057164;28;20397;-88
2021/04/05 05:14:56;;;;;;;23.10;12.10;;;7.30;99.90;;;;;;5075183;28;20024;-88
2021/04/05 05:17:23;;;;;;;23.83;12.93;;;7.40;99.90;;;;;;5057089;28;20024;-89
2021/04/05 05:19:51;;;;;;;25.73;11.88;;;7.50;99.90;;;;;;5057028;28;20485;-88
2021/04/05 05:22:19;;;;;;;19.08;11.27;;;7.50;99.90;;;;;;5057293;28;20032;-89
2021/04/05 05:24:47;;;;;;;19.85;10.63;;;7.60;99.90;;;;;;5057198;28;20020;-88
2021/04/05 05:27:14;;;;;;;20.95;10.95;;;7.60;99.90;;;;;;5057110;28;20021;-88
2021/04/05 05:29:40;;;;;;;19.65;11.38;;;7.70;99.90;;;;;;5057265;28;20024;-87
2021/04/05 05:32:08;;;;;;;20.85;9.88;;;7.80;99.90;;;;;;5056767;28;20017;-87
2021/04/05 05:34:35;;;;;;;21.70;10.80;;;7.90;99.90;;;;;;5074418;28;20025;-88
2021/04/05 05:37:01;;;;;;;19.73;10.80;;;8.00;99.90;;;;;;5057017;28;20123;-88
2021/04/05 05:39:27;;;;;;;19.55;9.90;;;8.00;99.90;;;;;;5056547;28;20470;-88
2021/04/05 05:42:09;;;;;;;20.05;10.48;;;8.00;99.90;;;;;;5074118;28;20098;-88
2021/04/05 05:44:46;;;;;;;19.45;8.48;;;8.10;99.90;;;;;;5056759;28;20021;-89
2021/04/05 05:47:29;;;;;;;7.65;2.50;;;8.00;99.90;;;;;;5074710;28;20016;-89
2021/04/05 05:50:03;;;;;;;4.55;1.60;;;7.40;99.90;;;;;;5056697;28;20032;-88
2021/04/05 05:53:10;;;;;;;6.80;1.70;;;6.90;99.90;;;;;;5074435;28;20043;-89
2021/04/05 05:55:48;;;;;;;5.07;1.70;;;6.50;99.90;;;;;;5023941;28;20052;-88
2021/04/05 05:58:36;;;;;;;4.95;1.27;;;6.20;99.90;;;;;;5074356;28;20428;-87
2021/04/05 06:01:35;;;;;;;3.42;1.23;;;6.00;99.90;;;;;;5074577;28;20031;-88
2021/04/05 06:04:38;;;;;;;8.38;1.77;;;5.90;99.90;;;;;;5056276;28;20055;-87
2021/04/05 06:07:22;;;;;;;6.53;1.35;;;5.80;99.90;;;;;;5038023;28;20128;-88
2021/04/05 06:10:01;;;;;;;5.93;1.55;;;5.70;99.90;;;;;;5074207;28;20080;-88
2021/04/05 06:12:45;;;;;;;4.70;1.30;;;5.70;99.90;;;;;;5056444;28;20028;-88
2021/04/05 06:15:17;;;;;;;;;;;5.70;99.90;;;;;;5056713;28;20029;-88
2021/04/05 06:18:04;;;;;;;8.95;2.35;;;5.70;99.90;;;;;;5056171;28;19904;-89
2021/04/05 06:20:37;;;;;;;3.72;0.93;;;5.70;99.90;;;;;;5056408;28;20021;-89
2021/04/05 06:23:31;;;;;;;5.50;1.25;;;5.70;99.90;;;;;;5056762;28;20032;-89
2021/04/05 06:26:02;;;;;;;6.20;1.45;;;5.60;99.90;;;;;;5056620;28;20033;-88
2021/04/05 06:29:01;;;;;;;6.53;1.35;;;5.60;99.90;;;;;;5057054;28;20543;-90
2021/04/05 06:31:36;;;;;;;2.90;1.00;;;5.60;99.90;;;;;;5036685;28;20036;-89
2021/04/05 06:34:23;;;;;;;3.45;0.85;;;5.60;99.90;;;;;;5056702;28;20025;-90
2021/04/05 06:37:27;;;;;;;5.90;1.10;;;5.60;99.90;;;;;;5078997;28;20043;-85
2021/04/05 06:40:07;;;;;;;5.37;1.70;;;5.60;99.90;;;;;;5059569;28;20029;-89
2021/04/05 06:42:54;;;;;;;6.28;1.00;;;5.50;99.90;;;;;;5057854;28;20318;-90
2021/04/05 06:45:41;;;;;;;3.65;1.10;;;5.50;99.90;;;;;;5060443;28;20072;-91
2021/04/05 06:48:45;;;;;;;3.42;0.73;;;5.60;99.90;;;;;;5058217;28;20024;-87
2021/04/05 06:51:31;;;;;;;4.67;0.93;;;5.60;99.90;;;;;;5054712;28;20064;-91
2021/04/05 06:54:41;;;;;;;3.70;0.75;;;5.60;99.90;;;;;;5052491;28;20028;-90
2021/04/05 06:57:07;;;;;;;3.78;0.80;;;5.60;99.90;;;;;;5052398;28;20055;-90
2021/04/05 06:59:51;;;;;;;5.47;1.00;;;5.70;99.90;;;;;;5053254;28;20120;-92
2021/04/05 07:02:54;;;;;;;4.22;1.10;;;5.70;99.90;;;;;;5052722;28;20368;-91
2021/04/05 07:05:56;;;;;;;4.75;0.75;;;5.80;99.90;;;;;;5052478;28;20035;-91
2021/04/05 07:08:33;;;;;;;4.80;0.90;;;5.80;99.90;;;;;;5052104;28;20118;-90
2021/04/05 07:11:20;;;;;;;4.10;0.82;;;5.80;99.90;;;;;;5052030;28;20499;-89
2021/04/05 07:14:02;;;;;;;3.90;0.80;;;5.70;99.90;;;;;;5056240;28;20040;-90
2021/04/05 07:16:55;;;;;;;3.53;0.50;;;5.60;99.90;;;;;;5057735;28;20506;-89
2021/04/05 07:19:56;;;;;;;4.30;0.68;;;5.60;99.90;;;;;;5060542;28;20029;-89
2021/04/05 07:22:43;;;;;;;1.52;0.50;;;5.50;99.90;;;;;;5058288;28;20036;-89
2021/04/05 07:25:34;;;;;;;3.17;0.80;;;5.30;99.90;;;;;;5056117;28;20048;-86
2021/04/05 07:28:23;;;;;;;5.15;1.02;;;5.30;99.90;;;;;;5049624;28;20033;-90
2021/04/05 07:31:19;;;;;;;2.70;0.57;;;5.30;99.90;;;;;;5054769;28;20025;-91
2021/04/05 07:33:46;;;;;;;4.32;0.80;;;5.30;99.90;;;;;;5052851;28;20076;-90
2021/04/05 07:36:41;;;;;;;6.22;1.38;;;5.20;99.90;;;;;;5055910;28;20099;-88
2021/04/05 07:39:53;;;;;;;10.68;1.92;;;5.10;99.90;;;;;;5053327;28;20027;-92
2021/04/05 07:42:29;;;;;;;11.00;1.38;;;4.90;99.90;;;;;;5055955;28;20172;-90
2021/04/05 07:45:13;;;;;;;9.15;1.40;;;4.90;99.90;;;;;;5051732;28;20390;-89
2021/04/05 07:47:52;;;;;;;16.67;2.40;;;4.80;99.90;;;;;;5052433;28;20017;-86
2021/04/05 07:50:53;;;;;;;12.57;2.05;;;4.70;99.90;;;;;;5051369;28;20029;-88
2021/04/05 07:53:48;;;;;;;13.50;2.72;;;4.70;99.90;;;;;;5051728;28;20083;-87
2021/04/05 07:56:50;;;;;;;16.65;2.10;;;4.60;99.90;;;;;;5054829;28;20045;-89
2021/04/05 07:59:30;;;;;;;19.35;2.60;;;4.60;99.90;;;;;;5039925;28;20033;-88
2021/04/05 08:02:11;;;;;;;20.75;3.03;;;4.50;99.90;;;;;;5054270;28;20025;-87
2021/04/05 08:05:05;;;;;;;15.68;2.50;;;4.40;99.90;;;;;;5053950;28;20518;-87
2021/04/05 08:07:54;;;;;;;13.60;2.10;;;4.40;99.90;;;;;;5048168;28;20052;-87
2021/04/05 08:10:41;;;;;;;11.15;2.10;;;4.40;99.90;;;;;;5054024;28;20025;-85
2021/04/05 08:13:39;;;;;;;11.82;2.08;;;4.40;99.90;;;;;;5053707;28;20099;-85
2021/04/05 08:16:14;;;;;;;17.40;2.17;;;4.50;99.90;;;;;;5049295;28;20053;-86
2021/04/05 08:18:54;;;;;;;14.80;2.25;;;4.60;99.90;;;;;;5053402;28;20456;-88
2021/04/05 08:21:23;;;;;;;15.88;2.58;;;4.70;99.90;;;;;;5055537;28;20029;-87
2021/04/05 08:24:00;;;;;;;13.05;2.10;;;4.70;99.90;;;;;;5055367;28;20017;-88
2021/04/05 08:26:58;;;;;;;16.50;2.05;;;4.80;99.90;;;;;;5056243;28;20112;-88
2021/04/05 08:30:03;;;;;;;14.63;2.00;;;4.90;99.90;;;;;;5059925;28;20021;-85
2021/04/05 08:32:38;;;;;;;14.43;1.90;;;4.90;99.90;;;;;;5078739;28;20051;-89
2021/04/05 08:35:25;;;;;;;9.98;1.70;;;5.00;99.90;;;;;;5082552;28;20027;-84
2021/04/05 08:38:08;;;;;;;9.93;1.77;;;5.10;99.90;;;;;;5078081;28;20067;-89
2021/04/05 08:44:28;;;;;;;12.50;2.15;;;5.30;99.90;;;;;;5124018;28;20824;-84
2021/04/05 08:46:58;;;;;;;10.38;2.17;;;5.40;99.90;;;;;;5057869;28;20102;-83
2021/04/05 08:49:26;;;;;;;7.85;1.40;;;5.50;99.90;;;;;;5082593;28;20028;-84
2021/04/05 08:52:09;;;;;;;8.43;1.67;;;5.70;99.90;;;;;;5106545;22;20127;-86
2021/04/05 08:54:39;;;;;;;10.57;1.63;;;6.00;99.90;;;;;;5054184;28;20024;-83
2021/04/05 08:57:25;;;;;;;5.10;1.10;;;6.10;98.20;;;;;;5068786;28;20098;-83
2021/04/05 09:00:15;;;;;;;5.93;1.27;;;6.30;98.10;;;;;;5068444;28;20070;-85
2021/04/05 09:03:00;;;;;;;6.93;1.50;;;6.40;97.30;;;;;;5071097;28;20074;-85
2021/04/05 09:05:29;;;;;;;5.30;0.90;;;6.30;96.30;;;;;;5068732;28;20034;-83
2021/04/05 09:08:19;;;;;;;5.03;0.90;;;6.30;95.70;;;;;;5070389;28;20030;-86
2021/04/05 09:11:04;;;;;;;5.70;0.68;;;6.10;95.40;;;;;;5070376;28;20017;-87
2021/04/05 09:14:08;;;;;;;3.50;1.20;;;6.10;96.00;;;;;;5069570;28;20048;-85
2021/04/05 09:17:22;;;;;;;7.07;1.00;;;6.10;96.30;;;;;;5066517;28;20045;-84
2021/04/05 09:20:15;;;;;;;3.50;0.35;;;5.80;96.60;;;;;;5070957;28;20020;-83
2021/04/05 09:23:12;;;;;;;3.25;0.50;;;5.20;96.50;;;;;;5083214;28;20056;-86
2021/04/05 09:26:15;;;;;;;3.42;0.77;;;5.00;97.60;;;;;;5061086;28;20024;-83
2021/04/05 09:29:03;;;;;;;1.77;0.30;;;5.10;97.20;;;;;;5072824;28;20012;-86
2021/04/05 09:31:54;;;;;;;3.17;0.45;;;5.40;98.00;;;;;;5068952;28;20024;-83
2021/04/05 09:34:56;;;;;;;2.17;0.65;;;5.30;98.40;;;;;;5073819;28;20032;-83
2021/04/05 09:37:49;;;;;;;4.82;0.38;;;5.10;99.50;;;;;;5091662;28;20032;-85
2021/04/05 09:40:39;;;;;;;2.00;0.30;;;4.90;99.90;;;;;;5072596;28;20103;-85
2021/04/05 09:43:34;;;;;;;1.35;0.43;;;4.90;99.90;;;;;;5074043;28;20020;-84
2021/04/05 09:46:44;;;;;;;3.50;0.50;;;5.20;99.80;;;;;;5078435;28;20360;-84
2021/04/05 09:49:34;;;;;;;3.15;0.98;;;5.20;98.70;;;;;;5087446;28;20056;-85
2021/04/05 09:52:18;;;;;;;2.67;0.40;;;5.20;98.50;;;;;;5073617;28;20027;-86
2021/04/05 09:54:55;;;;;;;;;;;5.20;98.90;;;;;;5074384;28;20114;-86
2021/04/05 09:57:46;;;;;;;4.97;0.70;;;5.20;98.40;;;;;;5074298;28;19912;-85
2021/04/05 10:00:18;;;;;;;3.88;0.88;;;5.20;98.10;;;;;;5053563;28;20040;-85
2021/04/05 10:02:46;;;;;;;3.30;0.70;;;5.20;98.40;;;;;;5053967;28;20024;-82
2021/04/05 10:05:20;;;;;;;3.53;0.65;;;5.20;98.10;;;;;;5054461;28;20020;-83
2021/04/05 10:07:54;;;;;;;8.00;0.77;;;5.30;97.50;;;;;;5037006;28;20044;-85
2021/04/05 10:10:28;;;;;;;7.25;1.33;;;5.40;97.30;;;;;;5056896;28;20360;-86
2021/04/05 10:13:03;;;;;;;7.22;1.08;;;5.50;96.90;;;;;;5076221;28;20461;-84
2021/04/05 10:15:35;;;;;;;8.32;1.40;;;5.50;96.50;;;;;;5071831;28;20032;-85
2021/04/05 10:18:14;;;;;;;4.40;1.08;;;5.50;95.70;;;;;;5069980;28;20056;-86
2021/04/05 10:20:47;;;;;;;8.48;1.17;;;5.40;96.10;;;;;;5073340;28;20036;-83
2021/04/05 10:23:16;;;;;;;;;;;5.30;95.80;;;;;;5092362;28;20563;-82
2021/04/05 10:25:51;;;;;;;5.88;1.30;;;5.00;95.30;;;;;;5073957;28;19907;-83
2021/04/05 10:28:21;;;;;;;10.88;1.60;;;4.60;96.00;;;;;;5073447;28;20107;-85
2021/04/05 10:30:56;;;;;;;7.82;1.23;;;4.30;96.60;;;;;;5073359;28;20023;-85
2021/04/05 10:33:38;;;;;;;5.25;1.30;;;4.40;97.20;;;;;;5073766;28;20051;-85
2021/04/05 10:36:25;;;;;;;12.82;2.08;;;4.60;96.90;;;;;;5086906;28;20452;-84
2021/04/05 10:39:02;;;;;;;9.52;1.58;;;5.20;96.20;;;;;;5070070;28;20044;-85
2021/04/05 10:41:29;;;;;;;7.10;1.20;;;5.60;95.80;;;;;;5053520;28;20074;-86
2021/04/05 10:44:12;;;;;;;7.50;1.25;;;6.50;96.10;;;;;;5090609;28;20020;-85
2021/04/05 10:46:56;;;;;;;6.53;1.38;;;7.20;94.60;;;;;;5091862;28;20647;-83
2021/04/05 10:49:35;;;;;;;8.65;1.70;;;7.20;93.50;;;;;;5091370;28;20023;-84
2021/04/05 10:52:11;;;;;;;6.72;1.23;;;6.60;91.20;;;;;;5073336;28;20111;-84
2021/04/05 10:54:44;;;;;;;3.70;1.10;;;5.90;91.20;;;;;;5091581;28;20146;-83
2021/04/05 10:57:31;;;;;;;5.07;1.05;;;5.40;89.40;;;;;;5070799;28;20482;-82
2021/04/05 11:00:17;;;;;;;9.18;1.20;;;5.30;90.30;;;;;;5073278;28;20024;-85
2021/04/05 11:02:58;;;;;;;9.10;1.42;;;5.30;89.70;;;;;;5039777;28;20079;-84
2021/04/05 11:05:36;;;;;;;7.70;1.25;;;5.40;90.20;;;;;;5073248;28;20020;-84
2021/04/05 11:08:48;;;;;;;8.40;2.10;;;5.90;90.30;;;;;;5073289;28;20105;-85
2021/04/05 11:11:31;;;;;;;5.72;1.00;;;6.90;90.40;;;;;;5050358;28;20058;-84
2021/04/05 11:14:52;;;;;;;5.30;1.40;;;8.50;87.40;;;;;;5072565;28;20067;-84
2021/04/05 11:17:26;;;;;;;5.32;1.13;;;8.70;86.20;;;;;;5084129;28;20047;-86
2021/04/05 11:19:57;;;;;;;9.73;1.55;;;8.00;85.60;;;;;;5072834;28;20356;-83
2021/04/05 11:22:25;;;;;;;9.70;1.27;;;7.10;87.10;;;;;;5056330;28;20057;-85
2021/04/05 11:25:13;;;;;;;6.65;1.10;;;6.10;90.60;;;;;;5070216;28;20552;-85
2021/04/05 11:28:26;;;;;;;5.68;1.23;;;5.20;91.80;;;;;;5073077;28;20077;-86
2021/04/05 11:31:20;;;;;;;6.68;0.80;;;4.70;92.30;;;;;;5071417;28;20115;-83
2021/04/05 11:34:00;;;;;;;6.20;2.17;;;4.80;92.60;;;;;;5075065;28;20012;-81
2021/04/05 11:36:57;;;;;;;7.50;0.90;;;4.70;92.20;;;;;;5074114;28;20312;-83
2021/04/05 11:39:46;;;;;;;3.22;1.08;;;4.50;92.00;;;;;;5071700;28;20039;-83
2021/04/05 11:42:15;;;;;;;5.10;1.02;;;5.00;90.90;;;;;;5074751;28;20077;-84
2021/04/05 11:45:02;;;;;;;6.97;1.08;;;6.30;91.10;;;;;;5093730;28;20103;-84
2021/04/05 11:47:55;;;;;;;6.20;1.00;;;7.90;86.20;;;;;;5073417;28;20020;-84
2021/04/05 11:50:30;;;;;;;5.38;0.95;;;9.00;83.10;;;;;;5075296;28;20032;-86
2021/04/05 11:53:10;;;;;;;5.82;1.50;;;9.60;81.60;;;;;;5094277;28;20032;-85
2021/04/05 11:56:07;;;;;;;3.65;1.35;;;10.30;80.50;;;;;;5074902;28;20119;-86
2021/04/05 11:58:52;;;;;;;;;;;;;;;;;;;;;
2021/04/05 12:01:29;;;;;;;6.07;1.20;;;11.80;77.70;;;;;;5093833;28;20054;-87
2021/04/05 12:04:20;;;;;;;;;;;;;;;;;;;;;
2021/04/05 12:10:05;;;;;;;5.88;1.10;;;11.40;71.30;;;;;;5050677;28;20083;-86
2021/04/05 12:12:59;;;;;;;5.43;1.20;;;10.00;75.30;;;;;;5075128;28;20588;-84
2021/04/05 12:15:35;;;;;;;7.18;0.90;;;8.50;79.10;;;;;;5074354;28;20043;-85
2021/04/05 12:18:32;;;;;;;4.80;0.98;;;7.10;84.00;;;;;;5074343;28;20020;-86
2021/04/05 12:21:08;;;;;;;6.03;0.85;;;7.00;88.80;;;;;;5075286;28;20031;-86
2021/04/05 12:23:36;;;;;;;5.43;1.10;;;8.40;87.40;;;;;;5054548;28;20104;-85
2021/04/05 12:26:23;;;;;;;5.75;1.30;;;9.70;83.50;;;;;;5054541;28;20052;-86
2021/04/05 12:29:05;;;;;;;4.03;0.90;;;10.30;79.40;;;;;;5070072;28;20055;-85
2021/04/05 12:31:35;;;;;;;9.50;1.00;;;10.10;76.90;;;;;;5052245;28;20025;-86
2021/04/05 12:34:20;;;;;;;10.10;1.55;;;9.10;75.60;;;;;;5072997;28;20055;-85
2021/04/05 12:36:50;;;;;;;5.63;1.00;;;8.20;79.70;;;;;;5072846;28;20029;-84
2021/04/05 12:39:17;;;;;;;7.07;0.73;;;7.80;84.50;;;;;;5068424;28;20016;-86
2021/04/05 12:41:47;;;;;;;9.48;1.10;;;8.00;84.40;;;;;;5035863;28;20027;-83
2021/04/05 12:44:34;;;;;;;4.13;0.98;;;7.90;86.60;;;;;;5047122;28;20070;-85
2021/04/05 12:47:04;;;;;;;6.10;0.77;;;8.10;87.40;;;;;;5041550;28;20078;-85
2021/04/05 12:49:34;;;;;;;6.15;0.90;;;8.80;87.80;;;;;;5048031;28;20329;-83
2021/04/05 12:52:32;;;;;;;3.83;0.95;;;9.70;87.30;;;;;;5049001;28;20020;-82
2021/04/05 12:55:04;;;;;;;2.90;0.73;;;10.40;83.60;;;;;;5017947;28;20028;-85
2021/04/05 12:57:36;;;;;;;4.35;0.68;;;10.70;82.80;;;;;;5039625;28;20214;-85
2021/04/05 13:00:10;;;;;;;5.88;1.13;;;11.10;83.40;;;;;;5031527;28;20040;-85
2021/04/05 13:02:39;;;;;;;4.78;0.70;;;10.90;81.80;;;;;;5047901;28;20020;-86
2021/04/05 13:05:40;;;;;;;6.50;1.13;;;10.00;82.10;;;;;;5060931;28;20108;-85
2021/04/05 13:08:51;;;;;;;4.55;0.85;;;9.20;83.10;;;;;;5041990;28;20095;-85
2021/04/05 13:11:57;;;;;;;4.35;0.57;;;8.30;81.40;;;;;;5037455;28;20119;-86
2021/04/05 13:14:33;;;;;;;4.60;0.57;;;7.60;80.90;;;;;;5065943;28;20041;-84
2021/04/05 13:17:24;;;;;;;5.65;0.60;;;7.20;78.00;;;;;;5043548;28;20048;-86
2021/04/05 13:20:01;;;;;;;5.07;0.65;;;6.80;75.90;;;;;;5048136;28;20120;-85
2021/04/05 13:22:34;;;;;;;4.75;0.95;;;6.80;78.90;;;;;;5056522;28;20046;-84
2021/04/05 13:25:15;;;;;;;;;;;6.80;76.90;;;;;;5056076;28;20081;-87
2021/04/05 13:27:53;;;;;;;4.78;0.65;;;6.90;78.30;;;;;;5067521;28;19904;-86
2021/04/05 13:30:20;;;;;;;2.35;0.68;;;7.00;78.60;;;;;;5068098;28;20019;-83
2021/04/05 13:32:56;;;;;;;4.28;0.80;;;6.90;77.50;;;;;;5068753;28;20131;-85
2021/04/05 13:35:26;;;;;;;5.45;1.48;;;6.70;78.80;;;;;;5059084;28;20065;-82
2021/04/05 13:38:02;;;;;;;3.42;0.75;;;6.80;77.40;;;;;;5058047;28;20021;-83
2021/04/05 13:40:33;;;;;;;4.28;0.90;;;6.70;76.10;;;;;;5088133;28;20030;-84
2021/04/05 13:43:12;;;;;;;4.72;1.17;;;6.60;76.10;;;;;;5073597;28;20020;-85
2021/04/05 13:45:46;;;;;;;3.85;0.60;;;7.40;77.30;;;;;;5059181;28;20043;-86
2021/04/05 13:48:21;;;;;;;6.60;1.20;;;8.30;76.50;;;;;;5064238;28;20027;-83
2021/04/05 13:54:28;;;;;;;4.20;0.82;;;9.70;71.30;;;;;;5074030;28;20037;-84
2021/04/05 13:57:16;;;;;;;3.72;0.80;;;10.20;70.70;;;;;;5068622;28;20017;-85